sensor_id;sensor_type;location;lat;lon;timestamp;P1;durP1;ratioP1;P2;durP2;ratioP2
6523;SDS011;3295;38.928;-77.052;2023-07-31T00:00:22;2.60;;;1.83;;
6523;SDS011;3295;38.928;-77.052;2023-07-31T00:02:49;2.73;;;2.03;;
6523;SDS011;3295;38.928;-77.052;2023-07-31T00:05:16;2.97;;;1.80;;
6523;SDS011;3295;38.928;-77.052;2023-07-31T00:07:44;2.43;;;1.83;;
6523;SDS011;3295;38.928;-77.052;2023-07-31T00:10:11;2.03;;;1.77;;
6523;SDS011;3295;38.928;-77.052;2023-07-31T00:12:41;7.30;;;3.37;;
6523;SDS011;3295;38.928;-77.052;2023-07-31T00:15:09;3.03;;;2.00;;
6523;SDS011;3295;38.928;-77.052;2023-07-31T00:17:36;3.60;;;2.10;;
6523;SDS011;3295;38.928;-77.052;2023-07-31T00:20:04;3.13;;;1.80;;
6523;SDS011;3295;38.928;-77.052;2023-07-31T00:22:32;4.77;;;2.30;;
6523;SDS011;3295;38.928;-77.052;2023-07-31T00:24:59;2.53;;;1.73;;
6523;SDS011;3295;38.928;-77.052;2023-07-31T00:27:27;3.17;;;1.73;;
6523;SDS011;3295;38.928;-77.052;2023-07-31T00:29:56;2.87;;;1.70;;
6523;SDS011;3295;38.928;-77.052;2023-07-31T00:32:23;3.70;;;1.90;;
6523;SDS011;3295;38.928;-77.052;2023-07-31T00:34:50;2.83;;;2.00;;
6523;SDS011;3295;38.928;-77.052;2023-07-31T00:37:18;3.03;;;1.60;;
6523;SDS011;3295;38.928;-77.052;2023-07-31T00:39:45;2.77;;;1.73;;
6523;SDS011;3295;38.928;-77.052;2023-07-31T00:42:12;5.10;;;1.90;;
6523;SDS011;3295;38.928;-77.052;2023-07-31T00:44:39;3.00;;;1.80;;
6523;SDS011;3295;38.928;-77.052;2023-07-31T00:47:08;3.13;;;1.77;;
6523;SDS011;3295;38.928;-77.052;2023-07-31T00:49:36;2.17;;;1.60;;
6523;SDS011;3295;38.928;-77.052;2023-07-31T00:52:03;2.30;;;1.70;;
6523;SDS011;3295;38.928;-77.052;2023-07-31T00:54:31;2.67;;;1.80;;
6523;SDS011;3295;38.928;-77.052;2023-07-31T00:56:58;2.60;;;1.90;;
6523;SDS011;3295;38.928;-77.052;2023-07-31T00:59:26;2.87;;;1.80;;
6523;SDS011;3295;38.928;-77.052;2023-07-31T01:01:54;5.03;;;2.07;;
6523;SDS011;3295;38.928;-77.052;2023-07-31T01:04:23;2.20;;;1.77;;
6523;SDS011;3295;38.928;-77.052;2023-07-31T01:06:52;2.63;;;1.80;;
6523;SDS011;3295;38.928;-77.052;2023-07-31T01:09:24;3.43;;;2.20;;
6523;SDS011;3295;38.928;-77.052;2023-07-31T01:11:56;2.53;;;1.80;;
6523;SDS011;3295;38.928;-77.052;2023-07-31T01:14:25;3.13;;;1.80;;
6523;SDS011;3295;38.928;-77.052;2023-07-31T01:16:52;2.70;;;2.10;;
6523;SDS011;3295;38.928;-77.052;2023-07-31T01:19:21;3.17;;;2.00;;
6523;SDS011;3295;38.928;-77.052;2023-07-31T01:21:57;3.30;;;2.30;;
6523;SDS011;3295;38.928;-77.052;2023-07-31T01:24:28;3.13;;;2.10;;
6523;SDS011;3295;38.928;-77.052;2023-07-31T01:27:02;3.70;;;2.20;;
6523;SDS011;3295;38.928;-77.052;2023-07-31T01:29:33;2.83;;;1.83;;
6523;SDS011;3295;38.928;-77.052;2023-07-31T01:32:02;3.87;;;2.10;;
6523;SDS011;3295;38.928;-77.052;2023-07-31T01:34:29;3.77;;;2.30;;
6523;SDS011;3295;38.928;-77.052;2023-07-31T01:36:57;3.83;;;2.20;;
6523;SDS011;3295;38.928;-77.052;2023-07-31T01:39:24;3.17;;;2.10;;
6523;SDS011;3295;38.928;-77.052;2023-07-31T01:41:54;4.03;;;2.10;;
6523;SDS011;3295;38.928;-77.052;2023-07-31T01:44:22;3.80;;;2.30;;
6523;SDS011;3295;38.928;-77.052;2023-07-31T01:46:50;3.77;;;1.80;;
6523;SDS011;3295;38.928;-77.052;2023-07-31T01:49:17;3.10;;;2.10;;
6523;SDS011;3295;38.928;-77.052;2023-07-31T01:51:44;3.17;;;2.20;;
6523;SDS011;3295;38.928;-77.052;2023-07-31T01:54:11;3.40;;;2.27;;
6523;SDS011;3295;38.928;-77.052;2023-07-31T01:56:39;4.07;;;2.40;;
6523;SDS011;3295;38.928;-77.052;2023-07-31T01:59:06;4.90;;;2.17;;
6523;SDS011;3295;38.928;-77.052;2023-07-31T02:01:35;3.53;;;2.10;;
6523;SDS011;3295;38.928;-77.052;2023-07-31T02:04:02;3.83;;;2.40;;
6523;SDS011;3295;38.928;-77.052;2023-07-31T02:06:30;3.17;;;2.20;;
6523;SDS011;3295;38.928;-77.052;2023-07-31T02:08:57;3.17;;;2.27;;
6523;SDS011;3295;38.928;-77.052;2023-07-31T02:11:25;3.50;;;2.17;;
6523;SDS011;3295;38.928;-77.052;2023-07-31T02:13:52;3.67;;;2.40;;
6523;SDS011;3295;38.928;-77.052;2023-07-31T02:16:19;3.00;;;2.20;;
6523;SDS011;3295;38.928;-77.052;2023-07-31T02:18:48;3.50;;;2.47;;
6523;SDS011;3295;38.928;-77.052;2023-07-31T02:21:15;3.33;;;2.30;;
6523;SDS011;3295;38.928;-77.052;2023-07-31T02:23:43;4.53;;;2.60;;
6523;SDS011;3295;38.928;-77.052;2023-07-31T02:26:10;3.97;;;2.50;;
6523;SDS011;3295;38.928;-77.052;2023-07-31T02:28:37;4.00;;;2.50;;
6523;SDS011;3295;38.928;-77.052;2023-07-31T02:31:04;4.23;;;2.70;;
6523;SDS011;3295;38.928;-77.052;2023-07-31T02:33:31;4.10;;;2.50;;
6523;SDS011;3295;38.928;-77.052;2023-07-31T02:36:00;11.27;;;2.17;;
6523;SDS011;3295;38.928;-77.052;2023-07-31T02:38:27;3.00;;;2.20;;
6523;SDS011;3295;38.928;-77.052;2023-07-31T02:40:54;3.70;;;2.20;;
6523;SDS011;3295;38.928;-77.052;2023-07-31T02:43:22;5.33;;;2.33;;
6523;SDS011;3295;38.928;-77.052;2023-07-31T02:45:51;2.80;;;2.00;;
6523;SDS011;3295;38.928;-77.052;2023-07-31T02:48:18;4.67;;;2.40;;
6523;SDS011;3295;38.928;-77.052;2023-07-31T02:50:45;3.33;;;2.10;;
6523;SDS011;3295;38.928;-77.052;2023-07-31T02:53:14;5.63;;;2.47;;
6523;SDS011;3295;38.928;-77.052;2023-07-31T02:55:41;3.47;;;2.00;;
6523;SDS011;3295;38.928;-77.052;2023-07-31T02:58:08;4.20;;;2.17;;
6523;SDS011;3295;38.928;-77.052;2023-07-31T03:00:36;3.80;;;2.30;;
6523;SDS011;3295;38.928;-77.052;2023-07-31T03:03:03;2.40;;;1.90;;
6523;SDS011;3295;38.928;-77.052;2023-07-31T03:05:30;4.30;;;2.30;;
6523;SDS011;3295;38.928;-77.052;2023-07-31T03:07:57;4.43;;;2.33;;
6523;SDS011;3295;38.928;-77.052;2023-07-31T03:10:26;2.90;;;2.03;;
6523;SDS011;3295;38.928;-77.052;2023-07-31T03:12:53;3.57;;;2.30;;
6523;SDS011;3295;38.928;-77.052;2023-07-31T03:15:21;3.70;;;2.20;;
6523;SDS011;3295;38.928;-77.052;2023-07-31T03:17:48;3.03;;;2.50;;
6523;SDS011;3295;38.928;-77.052;2023-07-31T03:20:16;3.03;;;2.00;;
6523;SDS011;3295;38.928;-77.052;2023-07-31T03:22:44;4.17;;;2.20;;
6523;SDS011;3295;38.928;-77.052;2023-07-31T03:25:11;3.43;;;2.00;;
6523;SDS011;3295;38.928;-77.052;2023-07-31T03:27:42;4.57;;;2.00;;
6523;SDS011;3295;38.928;-77.052;2023-07-31T03:30:12;4.23;;;2.30;;
6523;SDS011;3295;38.928;-77.052;2023-07-31T03:32:39;4.83;;;2.10;;
6523;SDS011;3295;38.928;-77.052;2023-07-31T03:35:07;4.07;;;2.10;;
6523;SDS011;3295;38.928;-77.052;2023-07-31T03:37:34;3.87;;;2.50;;
6523;SDS011;3295;38.928;-77.052;2023-07-31T03:40:02;5.47;;;2.23;;
6523;SDS011;3295;38.928;-77.052;2023-07-31T03:42:30;3.67;;;2.20;;
6523;SDS011;3295;38.928;-77.052;2023-07-31T03:44:59;3.50;;;2.20;;
6523;SDS011;3295;38.928;-77.052;2023-07-31T03:47:26;3.03;;;2.20;;
6523;SDS011;3295;38.928;-77.052;2023-07-31T03:49:53;3.00;;;2.10;;
6523;SDS011;3295;38.928;-77.052;2023-07-31T03:52:21;3.00;;;2.10;;
6523;SDS011;3295;38.928;-77.052;2023-07-31T03:54:48;4.60;;;1.90;;
6523;SDS011;3295;38.928;-77.052;2023-07-31T03:57:16;4.37;;;2.10;;
6523;SDS011;3295;38.928;-77.052;2023-07-31T03:59:43;3.00;;;2.00;;
6523;SDS011;3295;38.928;-77.052;2023-07-31T04:02:13;3.50;;;2.07;;
6523;SDS011;3295;38.928;-77.052;2023-07-31T04:04:40;3.27;;;2.40;;
6523;SDS011;3295;38.928;-77.052;2023-07-31T04:07:07;3.00;;;2.03;;
6523;SDS011;3295;38.928;-77.052;2023-07-31T04:09:34;3.20;;;2.30;;
6523;SDS011;3295;38.928;-77.052;2023-07-31T04:12:03;3.07;;;2.20;;
6523;SDS011;3295;38.928;-77.052;2023-07-31T04:14:30;3.60;;;2.40;;
6523;SDS011;3295;38.928;-77.052;2023-07-31T04:16:57;2.87;;;2.00;;
6523;SDS011;3295;38.928;-77.052;2023-07-31T04:19:27;2.87;;;2.10;;
6523;SDS011;3295;38.928;-77.052;2023-07-31T04:21:54;4.63;;;2.40;;
6523;SDS011;3295;38.928;-77.052;2023-07-31T04:24:21;3.73;;;2.27;;
6523;SDS011;3295;38.928;-77.052;2023-07-31T04:26:49;3.50;;;2.30;;
6523;SDS011;3295;38.928;-77.052;2023-07-31T04:29:17;6.67;;;2.70;;
6523;SDS011;3295;38.928;-77.052;2023-07-31T04:31:44;2.77;;;2.03;;
6523;SDS011;3295;38.928;-77.052;2023-07-31T04:34:11;2.87;;;2.30;;
6523;SDS011;3295;38.928;-77.052;2023-07-31T04:36:40;5.50;;;2.30;;
6523;SDS011;3295;38.928;-77.052;2023-07-31T04:39:08;3.00;;;2.37;;
6523;SDS011;3295;38.928;-77.052;2023-07-31T04:41:35;4.07;;;2.60;;
6523;SDS011;3295;38.928;-77.052;2023-07-31T04:44:03;3.73;;;2.03;;
6523;SDS011;3295;38.928;-77.052;2023-07-31T04:46:30;4.43;;;2.70;;
6523;SDS011;3295;38.928;-77.052;2023-07-31T04:48:57;3.97;;;2.47;;
6523;SDS011;3295;38.928;-77.052;2023-07-31T04:51:25;3.20;;;2.20;;
6523;SDS011;3295;38.928;-77.052;2023-07-31T04:53:54;3.57;;;2.20;;
6523;SDS011;3295;38.928;-77.052;2023-07-31T04:56:21;4.40;;;2.47;;
6523;SDS011;3295;38.928;-77.052;2023-07-31T04:58:49;3.67;;;2.50;;
6523;SDS011;3295;38.928;-77.052;2023-07-31T05:01:16;3.23;;;2.13;;
6523;SDS011;3295;38.928;-77.052;2023-07-31T05:03:43;3.17;;;2.30;;
6523;SDS011;3295;38.928;-77.052;2023-07-31T05:06:11;3.10;;;2.20;;
6523;SDS011;3295;38.928;-77.052;2023-07-31T05:08:39;3.60;;;2.20;;
6523;SDS011;3295;38.928;-77.052;2023-07-31T05:11:08;3.43;;;2.10;;
6523;SDS011;3295;38.928;-77.052;2023-07-31T05:13:36;2.90;;;2.10;;
6523;SDS011;3295;38.928;-77.052;2023-07-31T05:16:03;3.33;;;2.23;;
6523;SDS011;3295;38.928;-77.052;2023-07-31T05:18:31;3.60;;;2.37;;
6523;SDS011;3295;38.928;-77.052;2023-07-31T05:20:58;3.83;;;2.30;;
6523;SDS011;3295;38.928;-77.052;2023-07-31T05:23:25;2.93;;;2.20;;
6523;SDS011;3295;38.928;-77.052;2023-07-31T05:25:53;4.07;;;2.63;;
6523;SDS011;3295;38.928;-77.052;2023-07-31T05:28:23;7.97;;;2.70;;
6523;SDS011;3295;38.928;-77.052;2023-07-31T05:30:50;4.17;;;2.50;;
6523;SDS011;3295;38.928;-77.052;2023-07-31T05:33:18;7.57;;;3.00;;
6523;SDS011;3295;38.928;-77.052;2023-07-31T05:35:45;6.30;;;2.50;;
6523;SDS011;3295;38.928;-77.052;2023-07-31T05:38:14;5.23;;;2.87;;
6523;SDS011;3295;38.928;-77.052;2023-07-31T05:40:42;7.47;;;2.73;;
6523;SDS011;3295;38.928;-77.052;2023-07-31T05:43:09;3.07;;;2.30;;
6523;SDS011;3295;38.928;-77.052;2023-07-31T05:45:38;4.10;;;2.40;;
6523;SDS011;3295;38.928;-77.052;2023-07-31T05:48:06;4.83;;;2.90;;
6523;SDS011;3295;38.928;-77.052;2023-07-31T05:50:34;5.17;;;2.70;;
6523;SDS011;3295;38.928;-77.052;2023-07-31T05:53:02;7.47;;;2.90;;
6523;SDS011;3295;38.928;-77.052;2023-07-31T05:55:30;5.07;;;2.80;;
6523;SDS011;3295;38.928;-77.052;2023-07-31T05:57:58;4.30;;;2.60;;
6523;SDS011;3295;38.928;-77.052;2023-07-31T06:00:25;4.17;;;2.60;;
6523;SDS011;3295;38.928;-77.052;2023-07-31T06:02:54;4.17;;;2.67;;
6523;SDS011;3295;38.928;-77.052;2023-07-31T06:05:21;3.87;;;2.50;;
6523;SDS011;3295;38.928;-77.052;2023-07-31T06:07:49;4.90;;;2.53;;
6523;SDS011;3295;38.928;-77.052;2023-07-31T06:10:17;4.70;;;2.60;;
6523;SDS011;3295;38.928;-77.052;2023-07-31T06:12:44;4.20;;;2.77;;
6523;SDS011;3295;38.928;-77.052;2023-07-31T06:15:12;4.07;;;2.50;;
6523;SDS011;3295;38.928;-77.052;2023-07-31T06:17:39;5.40;;;2.60;;
6523;SDS011;3295;38.928;-77.052;2023-07-31T06:20:09;4.43;;;2.77;;
6523;SDS011;3295;38.928;-77.052;2023-07-31T06:22:37;5.03;;;2.47;;
6523;SDS011;3295;38.928;-77.052;2023-07-31T06:25:05;3.93;;;2.57;;
6523;SDS011;3295;38.928;-77.052;2023-07-31T06:27:32;5.80;;;2.67;;
6523;SDS011;3295;38.928;-77.052;2023-07-31T06:30:00;4.43;;;2.50;;
6523;SDS011;3295;38.928;-77.052;2023-07-31T06:32:27;5.33;;;2.70;;
6523;SDS011;3295;38.928;-77.052;2023-07-31T06:34:56;4.97;;;2.80;;
6523;SDS011;3295;38.928;-77.052;2023-07-31T06:37:25;4.17;;;2.57;;
6523;SDS011;3295;38.928;-77.052;2023-07-31T06:39:52;4.20;;;2.80;;
6523;SDS011;3295;38.928;-77.052;2023-07-31T06:42:20;6.57;;;2.90;;
6523;SDS011;3295;38.928;-77.052;2023-07-31T06:44:47;4.57;;;2.63;;
6523;SDS011;3295;38.928;-77.052;2023-07-31T06:47:15;4.27;;;2.63;;
6523;SDS011;3295;38.928;-77.052;2023-07-31T06:49:42;3.57;;;2.20;;
6523;SDS011;3295;38.928;-77.052;2023-07-31T06:52:10;5.80;;;2.70;;
6523;SDS011;3295;38.928;-77.052;2023-07-31T06:54:39;4.03;;;2.80;;
6523;SDS011;3295;38.928;-77.052;2023-07-31T06:57:07;3.73;;;2.70;;
6523;SDS011;3295;38.928;-77.052;2023-07-31T06:59:35;5.70;;;2.70;;
6523;SDS011;3295;38.928;-77.052;2023-07-31T07:02:02;4.87;;;2.47;;
6523;SDS011;3295;38.928;-77.052;2023-07-31T07:04:31;3.60;;;2.40;;
6523;SDS011;3295;38.928;-77.052;2023-07-31T07:06:59;6.17;;;2.50;;
6523;SDS011;3295;38.928;-77.052;2023-07-31T07:09:26;3.90;;;2.63;;
6523;SDS011;3295;38.928;-77.052;2023-07-31T07:11:55;3.53;;;2.47;;
6523;SDS011;3295;38.928;-77.052;2023-07-31T07:14:22;4.97;;;2.90;;
6523;SDS011;3295;38.928;-77.052;2023-07-31T07:16:50;4.73;;;2.37;;
6523;SDS011;3295;38.928;-77.052;2023-07-31T07:19:18;3.80;;;2.30;;
6523;SDS011;3295;38.928;-77.052;2023-07-31T07:21:45;4.37;;;2.57;;
6523;SDS011;3295;38.928;-77.052;2023-07-31T07:24:13;5.30;;;2.40;;
6523;SDS011;3295;38.928;-77.052;2023-07-31T07:26:40;5.40;;;2.50;;
6523;SDS011;3295;38.928;-77.052;2023-07-31T07:29:09;4.83;;;2.70;;
6523;SDS011;3295;38.928;-77.052;2023-07-31T07:31:36;3.47;;;2.23;;
6523;SDS011;3295;38.928;-77.052;2023-07-31T07:34:03;3.53;;;2.23;;
6523;SDS011;3295;38.928;-77.052;2023-07-31T07:36:30;3.17;;;2.10;;
6523;SDS011;3295;38.928;-77.052;2023-07-31T07:38:58;3.73;;;2.00;;
6523;SDS011;3295;38.928;-77.052;2023-07-31T07:41:26;2.90;;;2.00;;
6523;SDS011;3295;38.928;-77.052;2023-07-31T07:43:53;2.93;;;1.70;;
6523;SDS011;3295;38.928;-77.052;2023-07-31T07:46:22;2.87;;;1.83;;
6523;SDS011;3295;38.928;-77.052;2023-07-31T07:48:49;4.53;;;2.30;;
6523;SDS011;3295;38.928;-77.052;2023-07-31T07:51:16;4.87;;;2.07;;
6523;SDS011;3295;38.928;-77.052;2023-07-31T07:53:44;3.60;;;2.00;;
6523;SDS011;3295;38.928;-77.052;2023-07-31T07:56:11;2.77;;;2.00;;
6523;SDS011;3295;38.928;-77.052;2023-07-31T07:58:38;4.43;;;2.20;;
6523;SDS011;3295;38.928;-77.052;2023-07-31T08:01:05;2.27;;;2.00;;
6523;SDS011;3295;38.928;-77.052;2023-07-31T08:03:34;3.30;;;2.00;;
6523;SDS011;3295;38.928;-77.052;2023-07-31T08:06:02;2.80;;;2.20;;
6523;SDS011;3295;38.928;-77.052;2023-07-31T08:08:29;2.77;;;2.10;;
6523;SDS011;3295;38.928;-77.052;2023-07-31T08:10:56;4.00;;;2.30;;
6523;SDS011;3295;38.928;-77.052;2023-07-31T08:13:23;4.60;;;2.20;;
6523;SDS011;3295;38.928;-77.052;2023-07-31T08:15:50;4.33;;;2.33;;
6523;SDS011;3295;38.928;-77.052;2023-07-31T08:18:18;3.07;;;1.90;;
6523;SDS011;3295;38.928;-77.052;2023-07-31T08:20:46;3.57;;;2.10;;
6523;SDS011;3295;38.928;-77.052;2023-07-31T08:23:14;4.30;;;2.20;;
6523;SDS011;3295;38.928;-77.052;2023-07-31T08:25:41;4.13;;;2.30;;
6523;SDS011;3295;38.928;-77.052;2023-07-31T08:28:08;7.60;;;2.47;;
6523;SDS011;3295;38.928;-77.052;2023-07-31T08:30:36;3.63;;;2.30;;
6523;SDS011;3295;38.928;-77.052;2023-07-31T08:33:03;3.93;;;2.07;;
6523;SDS011;3295;38.928;-77.052;2023-07-31T08:35:30;3.53;;;2.37;;
6523;SDS011;3295;38.928;-77.052;2023-07-31T08:37:59;3.77;;;2.50;;
6523;SDS011;3295;38.928;-77.052;2023-07-31T08:40:26;4.27;;;2.70;;
6523;SDS011;3295;38.928;-77.052;2023-07-31T08:42:54;3.67;;;2.40;;
6523;SDS011;3295;38.928;-77.052;2023-07-31T08:45:22;3.73;;;2.30;;
6523;SDS011;3295;38.928;-77.052;2023-07-31T08:47:50;3.10;;;2.17;;
6523;SDS011;3295;38.928;-77.052;2023-07-31T08:50:18;4.27;;;2.77;;
6523;SDS011;3295;38.928;-77.052;2023-07-31T08:52:45;4.47;;;2.50;;
6523;SDS011;3295;38.928;-77.052;2023-07-31T08:55:14;3.80;;;2.30;;
6523;SDS011;3295;38.928;-77.052;2023-07-31T08:57:42;3.47;;;2.17;;
6523;SDS011;3295;38.928;-77.052;2023-07-31T09:00:10;3.97;;;2.40;;
6523;SDS011;3295;38.928;-77.052;2023-07-31T09:02:38;3.93;;;2.50;;
6523;SDS011;3295;38.928;-77.052;2023-07-31T09:05:06;4.70;;;2.50;;
6523;SDS011;3295;38.928;-77.052;2023-07-31T09:07:34;3.07;;;2.37;;
6523;SDS011;3295;38.928;-77.052;2023-07-31T09:10:01;4.27;;;2.60;;
6523;SDS011;3295;38.928;-77.052;2023-07-31T09:12:30;5.13;;;2.27;;
6523;SDS011;3295;38.928;-77.052;2023-07-31T09:14:58;2.97;;;2.10;;
6523;SDS011;3295;38.928;-77.052;2023-07-31T09:17:29;3.70;;;2.30;;
6523;SDS011;3295;38.928;-77.052;2023-07-31T09:19:57;4.50;;;2.73;;
6523;SDS011;3295;38.928;-77.052;2023-07-31T09:22:34;4.87;;;2.63;;
6523;SDS011;3295;38.928;-77.052;2023-07-31T09:25:13;4.23;;;2.70;;
6523;SDS011;3295;38.928;-77.052;2023-07-31T09:27:50;4.13;;;2.80;;
6523;SDS011;3295;38.928;-77.052;2023-07-31T09:30:17;4.73;;;2.57;;
6523;SDS011;3295;38.928;-77.052;2023-07-31T09:32:45;3.67;;;2.57;;
6523;SDS011;3295;38.928;-77.052;2023-07-31T09:35:13;4.40;;;2.50;;
6523;SDS011;3295;38.928;-77.052;2023-07-31T09:37:41;4.13;;;2.67;;
6523;SDS011;3295;38.928;-77.052;2023-07-31T09:40:08;5.50;;;2.83;;
6523;SDS011;3295;38.928;-77.052;2023-07-31T09:42:35;4.00;;;2.80;;
6523;SDS011;3295;38.928;-77.052;2023-07-31T09:45:11;4.77;;;2.77;;
6523;SDS011;3295;38.928;-77.052;2023-07-31T09:47:38;3.80;;;2.30;;
6523;SDS011;3295;38.928;-77.052;2023-07-31T09:50:07;6.43;;;2.63;;
6523;SDS011;3295;38.928;-77.052;2023-07-31T09:52:34;4.53;;;2.50;;
6523;SDS011;3295;38.928;-77.052;2023-07-31T09:55:05;7.20;;;2.80;;
6523;SDS011;3295;38.928;-77.052;2023-07-31T09:57:33;4.80;;;2.80;;
6523;SDS011;3295;38.928;-77.052;2023-07-31T10:00:01;5.67;;;2.80;;
6523;SDS011;3295;38.928;-77.052;2023-07-31T10:02:31;5.47;;;2.80;;
6523;SDS011;3295;38.928;-77.052;2023-07-31T10:04:59;4.30;;;2.83;;
6523;SDS011;3295;38.928;-77.052;2023-07-31T10:07:28;5.37;;;2.80;;
6523;SDS011;3295;38.928;-77.052;2023-07-31T10:09:56;4.57;;;3.00;;
6523;SDS011;3295;38.928;-77.052;2023-07-31T10:12:26;4.93;;;2.70;;
6523;SDS011;3295;38.928;-77.052;2023-07-31T10:14:54;4.27;;;2.63;;
6523;SDS011;3295;38.928;-77.052;2023-07-31T10:17:21;5.10;;;2.70;;
6523;SDS011;3295;38.928;-77.052;2023-07-31T10:19:50;3.60;;;2.50;;
6523;SDS011;3295;38.928;-77.052;2023-07-31T10:22:18;5.10;;;2.80;;
6523;SDS011;3295;38.928;-77.052;2023-07-31T10:24:46;5.07;;;2.80;;
6523;SDS011;3295;38.928;-77.052;2023-07-31T10:27:13;4.00;;;2.60;;
6523;SDS011;3295;38.928;-77.052;2023-07-31T10:29:41;5.77;;;3.17;;
6523;SDS011;3295;38.928;-77.052;2023-07-31T10:32:09;4.03;;;2.67;;
6523;SDS011;3295;38.928;-77.052;2023-07-31T10:34:38;4.33;;;2.73;;
6523;SDS011;3295;38.928;-77.052;2023-07-31T10:39:56;5.03;;;2.80;;
6523;SDS011;3295;38.928;-77.052;2023-07-31T10:42:27;3.97;;;2.57;;
6523;SDS011;3295;38.928;-77.052;2023-07-31T10:44:57;4.37;;;2.67;;
6523;SDS011;3295;38.928;-77.052;2023-07-31T10:47:25;6.37;;;2.73;;
6523;SDS011;3295;38.928;-77.052;2023-07-31T10:49:52;6.80;;;2.97;;
6523;SDS011;3295;38.928;-77.052;2023-07-31T10:52:20;6.30;;;2.90;;
6523;SDS011;3295;38.928;-77.052;2023-07-31T10:54:49;5.17;;;3.00;;
6523;SDS011;3295;38.928;-77.052;2023-07-31T10:57:22;3.53;;;2.57;;
6523;SDS011;3295;38.928;-77.052;2023-07-31T10:59:50;4.13;;;2.40;;
6523;SDS011;3295;38.928;-77.052;2023-07-31T11:02:24;4.83;;;2.73;;
6523;SDS011;3295;38.928;-77.052;2023-07-31T11:05:05;4.10;;;2.73;;
6523;SDS011;3295;38.928;-77.052;2023-07-31T11:07:46;4.77;;;2.90;;
6523;SDS011;3295;38.928;-77.052;2023-07-31T11:10:15;4.90;;;2.67;;
6523;SDS011;3295;38.928;-77.052;2023-07-31T11:12:44;4.97;;;3.00;;
6523;SDS011;3295;38.928;-77.052;2023-07-31T11:15:12;5.30;;;2.80;;
6523;SDS011;3295;38.928;-77.052;2023-07-31T11:17:39;5.97;;;2.77;;
6523;SDS011;3295;38.928;-77.052;2023-07-31T11:20:07;5.43;;;2.97;;
6523;SDS011;3295;38.928;-77.052;2023-07-31T11:22:34;5.20;;;3.00;;
6523;SDS011;3295;38.928;-77.052;2023-07-31T11:25:02;4.73;;;2.90;;
6523;SDS011;3295;38.928;-77.052;2023-07-31T11:27:30;4.43;;;2.47;;
6523;SDS011;3295;38.928;-77.052;2023-07-31T11:30:02;7.37;;;3.00;;
6523;SDS011;3295;38.928;-77.052;2023-07-31T11:32:30;4.67;;;2.77;;
6523;SDS011;3295;38.928;-77.052;2023-07-31T11:34:58;4.00;;;2.60;;
6523;SDS011;3295;38.928;-77.052;2023-07-31T11:37:28;3.90;;;2.50;;
6523;SDS011;3295;38.928;-77.052;2023-07-31T11:40:05;6.57;;;3.03;;
6523;SDS011;3295;38.928;-77.052;2023-07-31T11:42:32;4.43;;;2.80;;
6523;SDS011;3295;38.928;-77.052;2023-07-31T11:45:03;4.43;;;2.73;;
6523;SDS011;3295;38.928;-77.052;2023-07-31T11:47:32;4.37;;;2.97;;
6523;SDS011;3295;38.928;-77.052;2023-07-31T11:50:00;4.57;;;2.70;;
6523;SDS011;3295;38.928;-77.052;2023-07-31T11:52:27;4.53;;;2.80;;
6523;SDS011;3295;38.928;-77.052;2023-07-31T11:54:56;4.37;;;3.00;;
6523;SDS011;3295;38.928;-77.052;2023-07-31T11:57:24;8.33;;;3.20;;
6523;SDS011;3295;38.928;-77.052;2023-07-31T11:59:52;4.93;;;3.07;;
6523;SDS011;3295;38.928;-77.052;2023-07-31T12:02:21;5.30;;;2.93;;
6523;SDS011;3295;38.928;-77.052;2023-07-31T12:04:48;5.60;;;3.23;;
6523;SDS011;3295;38.928;-77.052;2023-07-31T12:07:16;4.57;;;3.00;;
6523;SDS011;3295;38.928;-77.052;2023-07-31T12:09:53;4.83;;;2.70;;
6523;SDS011;3295;38.928;-77.052;2023-07-31T12:12:20;4.90;;;3.00;;
6523;SDS011;3295;38.928;-77.052;2023-07-31T12:14:48;5.00;;;3.00;;
6523;SDS011;3295;38.928;-77.052;2023-07-31T12:17:17;6.43;;;2.87;;
6523;SDS011;3295;38.928;-77.052;2023-07-31T12:19:48;5.00;;;3.00;;
6523;SDS011;3295;38.928;-77.052;2023-07-31T12:22:15;6.97;;;2.90;;
6523;SDS011;3295;38.928;-77.052;2023-07-31T12:24:43;5.53;;;3.00;;
6523;SDS011;3295;38.928;-77.052;2023-07-31T12:27:12;3.83;;;2.57;;
6523;SDS011;3295;38.928;-77.052;2023-07-31T12:29:41;4.77;;;2.83;;
6523;SDS011;3295;38.928;-77.052;2023-07-31T12:32:19;5.57;;;3.30;;
6523;SDS011;3295;38.928;-77.052;2023-07-31T12:34:48;4.07;;;2.87;;
6523;SDS011;3295;38.928;-77.052;2023-07-31T12:37:16;5.20;;;2.93;;
6523;SDS011;3295;38.928;-77.052;2023-07-31T12:39:43;5.13;;;3.17;;
6523;SDS011;3295;38.928;-77.052;2023-07-31T12:42:10;4.47;;;2.90;;
6523;SDS011;3295;38.928;-77.052;2023-07-31T12:44:38;6.50;;;3.10;;
6523;SDS011;3295;38.928;-77.052;2023-07-31T12:47:05;4.67;;;2.90;;
6523;SDS011;3295;38.928;-77.052;2023-07-31T12:49:32;4.30;;;2.97;;
6523;SDS011;3295;38.928;-77.052;2023-07-31T12:52:01;4.43;;;2.70;;
6523;SDS011;3295;38.928;-77.052;2023-07-31T12:54:28;4.20;;;3.03;;
6523;SDS011;3295;38.928;-77.052;2023-07-31T12:56:55;4.87;;;3.03;;
6523;SDS011;3295;38.928;-77.052;2023-07-31T12:59:23;5.43;;;3.07;;
6523;SDS011;3295;38.928;-77.052;2023-07-31T13:01:50;4.40;;;2.90;;
6523;SDS011;3295;38.928;-77.052;2023-07-31T13:04:18;5.47;;;3.10;;
6523;SDS011;3295;38.928;-77.052;2023-07-31T13:06:45;6.40;;;3.40;;
6523;SDS011;3295;38.928;-77.052;2023-07-31T13:09:14;6.73;;;3.30;;
6523;SDS011;3295;38.928;-77.052;2023-07-31T13:11:43;5.47;;;3.30;;
6523;SDS011;3295;38.928;-77.052;2023-07-31T13:14:10;6.10;;;3.20;;
6523;SDS011;3295;38.928;-77.052;2023-07-31T13:16:37;6.30;;;3.03;;
6523;SDS011;3295;38.928;-77.052;2023-07-31T13:19:04;5.10;;;3.20;;
6523;SDS011;3295;38.928;-77.052;2023-07-31T13:21:32;4.70;;;3.00;;
6523;SDS011;3295;38.928;-77.052;2023-07-31T13:24:02;4.83;;;3.13;;
6523;SDS011;3295;38.928;-77.052;2023-07-31T13:26:31;6.27;;;3.20;;
6523;SDS011;3295;38.928;-77.052;2023-07-31T13:28:59;6.20;;;3.07;;
6523;SDS011;3295;38.928;-77.052;2023-07-31T13:31:26;3.97;;;2.80;;
6523;SDS011;3295;38.928;-77.052;2023-07-31T13:33:54;4.50;;;2.80;;
6523;SDS011;3295;38.928;-77.052;2023-07-31T13:36:21;4.83;;;3.00;;
6523;SDS011;3295;38.928;-77.052;2023-07-31T13:38:48;4.30;;;2.73;;
6523;SDS011;3295;38.928;-77.052;2023-07-31T13:41:15;4.13;;;3.03;;
6523;SDS011;3295;38.928;-77.052;2023-07-31T13:43:45;4.33;;;2.83;;
6523;SDS011;3295;38.928;-77.052;2023-07-31T13:46:12;3.83;;;2.77;;
6523;SDS011;3295;38.928;-77.052;2023-07-31T13:48:39;4.87;;;3.20;;
6523;SDS011;3295;38.928;-77.052;2023-07-31T13:51:07;5.07;;;3.17;;
6523;SDS011;3295;38.928;-77.052;2023-07-31T13:53:34;4.13;;;2.90;;
6523;SDS011;3295;38.928;-77.052;2023-07-31T13:56:02;6.87;;;3.20;;
6523;SDS011;3295;38.928;-77.052;2023-07-31T13:58:29;5.40;;;3.30;;
6523;SDS011;3295;38.928;-77.052;2023-07-31T14:00:58;4.70;;;3.07;;
6523;SDS011;3295;38.928;-77.052;2023-07-31T14:03:25;4.20;;;2.87;;
6523;SDS011;3295;38.928;-77.052;2023-07-31T14:05:52;4.40;;;3.20;;
6523;SDS011;3295;38.928;-77.052;2023-07-31T14:08:20;4.50;;;3.10;;
6523;SDS011;3295;38.928;-77.052;2023-07-31T14:10:48;4.33;;;3.10;;
6523;SDS011;3295;38.928;-77.052;2023-07-31T14:13:15;4.57;;;3.10;;
6523;SDS011;3295;38.928;-77.052;2023-07-31T14:15:42;4.73;;;3.10;;
6523;SDS011;3295;38.928;-77.052;2023-07-31T14:18:11;4.03;;;3.03;;
6523;SDS011;3295;38.928;-77.052;2023-07-31T14:20:38;4.37;;;3.00;;
6523;SDS011;3295;38.928;-77.052;2023-07-31T14:23:06;4.03;;;2.83;;
6523;SDS011;3295;38.928;-77.052;2023-07-31T14:25:33;3.77;;;2.50;;
6523;SDS011;3295;38.928;-77.052;2023-07-31T14:28:01;5.73;;;3.07;;
6523;SDS011;3295;38.928;-77.052;2023-07-31T14:30:28;5.07;;;3.20;;
6523;SDS011;3295;38.928;-77.052;2023-07-31T14:32:55;4.77;;;3.20;;
6523;SDS011;3295;38.928;-77.052;2023-07-31T14:35:24;4.97;;;3.10;;
6523;SDS011;3295;38.928;-77.052;2023-07-31T14:37:51;4.73;;;3.03;;
6523;SDS011;3295;38.928;-77.052;2023-07-31T14:40:18;4.70;;;3.17;;
6523;SDS011;3295;38.928;-77.052;2023-07-31T14:42:46;5.10;;;3.67;;
6523;SDS011;3295;38.928;-77.052;2023-07-31T14:45:13;4.07;;;2.83;;
6523;SDS011;3295;38.928;-77.052;2023-07-31T14:47:40;5.03;;;3.53;;
6523;SDS011;3295;38.928;-77.052;2023-07-31T14:50:08;5.07;;;3.00;;
6523;SDS011;3295;38.928;-77.052;2023-07-31T14:52:37;4.37;;;3.00;;
6523;SDS011;3295;38.928;-77.052;2023-07-31T14:55:05;4.93;;;3.00;;